Time;durP1;ratioP1;P1;durP2;ratioP2;P2;SDS_P1;SDS_P2;PMS_P1;PMS_P2;Temp;Humidity;BMP_temperature;BMP_pressure;BME280_temperature;BME280_humidity;BME280_pressure;Samples;Min_cycle;Max_cycle;Signal;HPM_P1;HPM_P2
2022/09/06 00:00:23;;;;;;;2.45;2.35;;;21.70;99.90;;;;;;5047582;28;20230;-71
2022/09/06 00:02:50;;;;;;;2.95;2.75;;;21.70;99.90;;;;;;5049424;28;20206;-71
2022/09/06 00:05:18;;;;;;;2.90;2.70;;;21.70;99.90;;;;;;5044897;28;20234;-71
2022/09/06 00:07:45;;;;;;;3.17;2.97;;;21.70;99.90;;;;;;5048019;28;20199;-72
2022/09/06 00:10:12;;;;;;;3.15;2.80;;;21.70;99.90;;;;;;5046234;28;20230;-72
2022/09/06 00:12:40;;;;;;;2.60;2.40;;;21.60;99.90;;;;;;5049652;28;20206;-72
2022/09/06 00:15:09;;;;;;;3.67;3.45;;;21.60;99.90;;;;;;5046944;28;20720;-72
2022/09/06 00:17:36;;;;;;;2.97;2.78;;;21.60;99.90;;;;;;5045470;28;20265;-72
2022/09/06 00:20:07;;;;;;;2.90;2.70;;;21.60;99.90;;;;;;5046740;28;20219;-72
2022/09/06 00:22:35;;;;;;;2.92;2.72;;;21.60;99.90;;;;;;5045385;28;20233;-72
2022/09/06 00:25:02;;;;;;;2.88;2.67;;;21.50;99.90;;;;;;5041208;28;20227;-72
2022/09/06 00:27:29;;;;;;;4.25;2.95;;;21.50;99.90;;;;;;5048522;28;20189;-71
2022/09/06 00:29:57;;;;;;;3.00;2.70;;;21.50;99.90;;;;;;5043846;28;20218;-72
2022/09/06 00:32:25;;;;;;;2.88;2.67;;;21.50;99.90;;;;;;5046794;28;20218;-71
2022/09/06 00:34:52;;;;;;;3.17;2.97;;;21.40;99.90;;;;;;5042586;28;20229;-72
2022/09/06 00:37:19;;;;;;;2.80;2.60;;;21.40;99.90;;;;;;5047077;28;20230;-72
2022/09/06 00:39:46;;;;;;;2.67;2.53;;;21.30;99.90;;;;;;5046647;28;20640;-71
2022/09/06 00:42:14;;;;;;;2.85;2.65;;;21.30;99.90;;;;;;5045548;28;20203;-72
2022/09/06 00:44:41;;;;;;;3.00;2.80;;;21.30;99.90;;;;;;5040935;28;20238;-72
2022/09/06 00:47:09;;;;;;;2.40;2.30;;;21.30;99.90;;;;;;5044554;28;20200;-71
2022/09/06 00:49:40;;;;;;;3.00;2.80;;;21.30;99.90;;;;;;5045278;28;20223;-72
2022/09/06 00:52:10;;;;;;;5.38;2.95;;;21.30;99.90;;;;;;5048203;28;20210;-72
2022/09/06 00:54:37;;;;;;;3.00;2.80;;;21.20;99.90;;;;;;5041289;28;20227;-72
2022/09/06 00:57:05;;;;;;;2.90;2.70;;;21.20;99.90;;;;;;5044596;28;20268;-71
2022/09/06 00:59:35;;;;;;;3.17;2.95;;;21.20;99.90;;;;;;5041037;28;20230;-72
2022/09/06 01:02:04;;;;;;;3.40;3.10;;;21.20;99.90;;;;;;5041683;28;20192;-72
2022/09/06 01:04:32;;;;;;;2.80;2.60;;;21.20;99.90;;;;;;5039211;28;20227;-72
2022/09/06 01:07:06;;;;;;;3.25;3.05;;;21.20;99.90;;;;;;5039274;28;20199;-72
2022/09/06 01:09:47;;;;;;;3.38;3.15;;;21.20;99.90;;;;;;5041278;28;20258;-72
2022/09/06 01:12:25;;;;;;;2.78;2.60;;;21.20;99.90;;;;;;5040574;28;20199;-71
2022/09/06 01:15:12;;;;;;;2.67;2.47;;;21.20;99.90;;;;;;5041189;28;20223;-72
2022/09/06 01:17:51;;;;;;;2.95;2.75;;;21.10;99.90;;;;;;5039648;28;20227;-72
2022/09/06 01:20:45;;;;;;;2.90;2.70;;;21.10;99.90;;;;;;5043508;28;20222;-72
2022/09/06 01:23:48;;;;;;;3.00;2.80;;;21.10;99.90;;;;;;5044623;28;20203;-72
2022/09/06 01:26:51;;;;;;;3.10;2.90;;;21.10;99.90;;;;;;5041527;28;20233;-71
2022/09/06 01:29:26;;;;;;;3.15;2.95;;;21.00;99.90;;;;;;5040566;28;20210;-72
2022/09/06 01:32:00;;;;;;;2.75;2.63;;;21.00;99.90;;;;;;5039308;28;20209;-71
2022/09/06 01:34:35;;;;;;;2.92;2.72;;;21.00;99.90;;;;;;5041445;28;20301;-72
2022/09/06 01:37:06;;;;;;;2.80;2.67;;;21.00;99.90;;;;;;5038037;28;20214;-72
2022/09/06 01:39:36;;;;;;;3.08;2.83;;;21.00;99.90;;;;;;5042272;28;20227;-72
2022/09/06 01:42:07;;;;;;;3.35;3.15;;;21.00;99.90;;;;;;5040930;28;20226;-71
2022/09/06 01:44:37;;;;;;;3.50;3.00;;;20.90;99.90;;;;;;5038005;28;20650;-72
2022/09/06 01:47:17;;;;;;;2.80;2.60;;;20.90;99.90;;;;;;5043039;28;20199;-72
2022/09/06 01:49:57;;;;;;;3.13;2.92;;;21.00;99.90;;;;;;5046008;28;20219;-72
2022/09/06 01:52:32;;;;;;;3.08;2.88;;;20.90;99.90;;;;;;5043483;28;20202;-72
2022/09/06 01:55:13;;;;;;;2.65;2.55;;;20.90;99.90;;;;;;5044548;28;20222;-71
2022/09/06 01:57:56;;;;;;;2.88;2.63;;;20.90;99.90;;;;;;5040948;28;20222;-71
2022/09/06 02:00:25;;;;;;;2.60;2.45;;;20.90;99.90;;;;;;5039466;28;20230;-72
2022/09/06 02:03:05;;;;;;;3.00;2.80;;;20.90;99.90;;;;;;5042536;28;20205;-72
2022/09/06 02:05:36;;;;;;;2.97;2.78;;;20.90;99.90;;;;;;5042648;28;20230;-72
2022/09/06 02:08:11;;;;;;;3.35;2.95;;;20.90;99.90;;;;;;5038255;28;20205;-71
2022/09/06 02:10:44;;;;;;;2.85;2.65;;;20.90;99.90;;;;;;5040705;28;20218;-71
2022/09/06 02:13:14;;;;;;;3.13;2.92;;;20.90;99.90;;;;;;5042090;28;20770;-71
2022/09/06 02:15:48;;;;;;;3.17;2.97;;;20.90;99.90;;;;;;5040855;28;20219;-71
2022/09/06 02:18:20;;;;;;;2.92;2.72;;;20.80;99.90;;;;;;5042373;28;20226;-72
2022/09/06 02:20:51;;;;;;;3.00;2.80;;;20.80;99.90;;;;;;5041350;28;20227;-72
2022/09/06 02:23:23;;;;;;;3.00;2.80;;;20.80;99.90;;;;;;5041634;28;20937;-71
2022/09/06 02:25:53;;;;;;;3.22;2.97;;;20.70;99.90;;;;;;5041150;28;20222;-72
2022/09/06 02:28:21;;;;;;;2.80;2.70;;;20.70;99.90;;;;;;5041913;28;20195;-72
2022/09/06 02:30:53;;;;;;;3.00;2.80;;;20.70;99.90;;;;;;5039734;28;20279;-72
2022/09/06 02:33:24;;;;;;;3.00;2.80;;;20.70;99.90;;;;;;5043133;28;20681;-72
2022/09/06 02:35:53;;;;;;;2.90;2.70;;;20.70;99.90;;;;;;5039613;28;20222;-72
2022/09/06 02:38:23;;;;;;;2.95;2.75;;;20.70;99.90;;;;;;5039650;28;20224;-71
2022/09/06 02:40:53;;;;;;;3.30;3.00;;;20.70;99.90;;;;;;5043615;28;20218;-72
2022/09/06 02:43:21;;;;;;;3.03;2.83;;;20.70;99.90;;;;;;5044887;28;20258;-71
2022/09/06 02:45:48;;;;;;;3.88;2.80;;;20.70;99.90;;;;;;5043155;28;20277;-74
2022/09/06 02:48:16;;;;;;;2.92;2.72;;;20.70;99.90;;;;;;5046280;28;20669;-73
2022/09/06 02:50:43;;;;;;;3.22;3.03;;;20.70;99.90;;;;;;5045071;28;20233;-72
2022/09/06 02:53:12;;;;;;;2.90;2.70;;;20.70;99.90;;;;;;5046918;28;20811;-72
2022/09/06 02:55:40;;;;;;;2.90;2.70;;;20.80;99.90;;;;;;5046637;28;20226;-72
2022/09/06 02:58:11;;;;;;;2.95;2.75;;;20.80;99.90;;;;;;5047685;28;20704;-72
2022/09/06 03:00:38;;;;;;;3.05;2.85;;;20.80;99.90;;;;;;5044626;28;20752;-72
2022/09/06 03:03:05;;;;;;;3.17;2.97;;;20.80;99.90;;;;;;5046181;28;20207;-72
2022/09/06 03:05:34;;;;;;;3.70;3.28;;;20.80;99.90;;;;;;5042984;28;20241;-72
2022/09/06 03:08:01;;;;;;;3.30;3.03;;;20.70;99.90;;;;;;5042589;28;20191;-72
2022/09/06 03:10:28;;;;;;;3.35;3.15;;;20.80;99.90;;;;;;5045225;28;20712;-72
2022/09/06 03:12:55;;;;;;;3.30;3.10;;;20.80;99.90;;;;;;5049967;28;20229;-71
2022/09/06 03:15:22;;;;;;;3.33;3.13;;;20.70;99.90;;;;;;5042310;28;20240;-72
2022/09/06 03:17:49;;;;;;;3.90;3.60;;;20.70;99.90;;;;;;5048188;28;20242;-72
2022/09/06 03:20:16;;;;;;;3.10;2.90;;;20.70;99.90;;;;;;5043369;28;20216;-72
2022/09/06 03:22:45;;;;;;;3.40;3.20;;;20.80;99.90;;;;;;5044100;28;20202;-72
2022/09/06 03:25:12;;;;;;;3.30;3.10;;;20.80;99.90;;;;;;5040522;28;20231;-72
2022/09/06 03:27:39;;;;;;;3.47;3.20;;;20.80;99.90;;;;;;5046229;28;20203;-72
2022/09/06 03:30:07;;;;;;;3.47;3.28;;;20.70;99.90;;;;;;5045887;28;20226;-72
2022/09/06 03:32:34;;;;;;;3.10;2.90;;;20.70;99.90;;;;;;5044775;28;20210;-72
2022/09/06 03:35:02;;;;;;;3.60;3.30;;;20.70;99.90;;;;;;5040570;28;20709;-71
2022/09/06 03:37:29;;;;;;;3.35;3.15;;;20.70;99.90;;;;;;5044965;28;20218;-72
2022/09/06 03:39:58;;;;;;;3.05;2.85;;;20.70;99.90;;;;;;5044105;28;20249;-72
2022/09/06 03:42:26;;;;;;;3.33;3.13;;;20.70;99.90;;;;;;5046929;28;20195;-71
2022/09/06 03:44:53;;;;;;;3.47;3.28;;;20.60;99.90;;;;;;5044422;28;20226;-71
2022/09/06 03:47:20;;;;;;;3.30;3.10;;;20.60;99.90;;;;;;5044849;28;20219;-71
2022/09/06 03:49:47;;;;;;;3.28;3.03;;;20.60;99.90;;;;;;5040796;28;20222;-71
2022/09/06 03:52:15;;;;;;;3.72;3.42;;;20.60;99.90;;;;;;5045053;28;20199;-71
2022/09/06 03:54:42;;;;;;;3.20;3.00;;;20.60;99.90;;;;;;5044885;28;20219;-72
2022/09/06 03:57:10;;;;;;;3.47;3.28;;;20.60;99.90;;;;;;5045043;28;20200;-71
2022/09/06 03:59:37;;;;;;;3.20;3.00;;;20.60;99.90;;;;;;5036884;28;20223;-71
2022/09/06 04:02:05;;;;;;;3.15;2.95;;;20.50;99.90;;;;;;5046041;28;20626;-72
2022/09/06 04:04:32;;;;;;;3.20;3.00;;;20.50;99.90;;;;;;5044788;28;20234;-72
2022/09/06 04:06:59;;;;;;;3.63;3.40;;;20.50;99.90;;;;;;5045139;28;20191;-72
2022/09/06 04:09:26;;;;;;;3.40;3.15;;;20.40;99.90;;;;;;5043826;28;21111;-72
2022/09/06 04:11:53;;;;;;;3.47;3.17;;;20.40;99.90;;;;;;5044585;28;20216;-72
2022/09/06 04:14:22;;;;;;;3.60;3.30;;;20.40;99.90;;;;;;5041492;28;20249;-71
2022/09/06 04:16:49;;;;;;;3.40;3.20;;;20.40;99.90;;;;;;5042530;28;20257;-72
2022/09/06 04:19:16;;;;;;;3.25;3.05;;;20.40;99.90;;;;;;5044879;28;20214;-72
2022/09/06 04:21:43;;;;;;;3.22;3.00;;;20.30;99.90;;;;;;5043926;28;20199;-72
2022/09/06 04:24:10;;;;;;;3.25;3.05;;;20.30;99.90;;;;;;5042792;28;20220;-72
2022/09/06 04:26:38;;;;;;;3.55;3.25;;;20.30;99.90;;;;;;5046669;28;20203;-72
2022/09/06 04:29:05;;;;;;;3.58;3.28;;;20.30;99.90;;;;;;5044891;28;20609;-72
2022/09/06 04:31:33;;;;;;;4.10;3.80;;;20.20;99.90;;;;;;5044255;28;20226;-71
2022/09/06 04:34:00;;;;;;;3.90;3.60;;;20.20;99.90;;;;;;5044466;28;20720;-71
2022/09/06 04:36:28;;;;;;;3.55;3.35;;;20.10;99.90;;;;;;5043349;28;21062;-71
2022/09/06 04:38:55;;;;;;;3.65;3.35;;;20.10;99.90;;;;;;5039663;28;20311;-72
2022/09/06 04:41:22;;;;;;;3.60;3.40;;;20.00;99.90;;;;;;5039186;28;20315;-71
2022/09/06 04:43:49;;;;;;;4.38;3.97;;;20.00;99.90;;;;;;5043975;28;20206;-71
2022/09/06 04:46:21;;;;;;;3.45;3.25;;;20.00;99.90;;;;;;5044617;28;20219;-72
2022/09/06 04:48:50;;;;;;;3.72;3.42;;;20.00;99.90;;;;;;5043435;28;20214;-72
2022/09/06 04:51:17;;;;;;;4.00;3.30;;;20.00;99.90;;;;;;5043411;28;20211;-71
2022/09/06 04:53:44;;;;;;;3.30;3.10;;;20.00;99.90;;;;;;5046469;28;20211;-72
2022/09/06 04:56:15;;;;;;;3.50;3.30;;;20.00;99.90;;;;;;5041591;28;20231;-71
2022/09/06 04:58:42;;;;;;;4.20;3.60;;;20.00;99.90;;;;;;5044981;28;20250;-72
2022/09/06 05:01:09;;;;;;;3.85;3.55;;;20.00;99.90;;;;;;5043267;28;20219;-72
2022/09/06 05:03:36;;;;;;;3.90;3.50;;;20.00;99.90;;;;;;5043298;28;20203;-72
2022/09/06 05:06:09;;;;;;;4.90;3.53;;;20.00;99.90;;;;;;5046730;28;20250;-71
2022/09/06 05:08:38;;;;;;;3.50;3.30;;;20.00;99.90;;;;;;5047302;28;20190;-71
2022/09/06 05:11:05;;;;;;;5.32;3.50;;;20.00;99.90;;;;;;5040709;28;20298;-71
2022/09/06 05:13:33;;;;;;;3.38;3.17;;;20.00;99.90;;;;;;5046053;28;20221;-71
2022/09/06 05:16:01;;;;;;;3.47;3.25;;;20.10;99.90;;;;;;5043282;28;20227;-72
2022/09/06 05:18:29;;;;;;;3.72;3.42;;;20.10;99.90;;;;;;5040594;28;20726;-71
2022/09/06 05:20:56;;;;;;;3.47;3.28;;;20.20;99.90;;;;;;5043554;28;20638;-72
2022/09/06 05:23:25;;;;;;;3.67;3.38;;;20.20;99.90;;;;;;5041183;28;20257;-71
2022/09/06 05:25:53;;;;;;;3.42;3.17;;;20.20;99.90;;;;;;5043147;28;20230;-72
2022/09/06 05:28:20;;;;;;;3.10;2.90;;;20.30;99.90;;;;;;5041220;28;20198;-72
2022/09/06 05:30:47;;;;;;;3.47;3.28;;;20.30;99.90;;;;;;5040634;28;20228;-73
2022/09/06 05:33:20;;;;;;;3.30;3.10;;;20.30;99.90;;;;;;5044718;28;20213;-72
2022/09/06 05:35:48;;;;;;;3.28;3.08;;;20.30;99.90;;;;;;5040290;28;20239;-72
2022/09/06 05:38:15;;;;;;;3.22;3.03;;;20.30;99.90;;;;;;5043102;28;20326;-71
2022/09/06 05:40:44;;;;;;;3.70;3.40;;;20.30;99.90;;;;;;5044054;28;20223;-72
2022/09/06 05:43:11;;;;;;;4.47;3.95;;;20.30;99.90;;;;;;5046963;28;20657;-72
2022/09/06 05:45:38;;;;;;;3.30;3.10;;;20.30;99.90;;;;;;5042752;28;20229;-72
2022/09/06 05:48:05;;;;;;;3.47;3.17;;;20.40;99.90;;;;;;5045647;28;20199;-71
2022/09/06 05:50:32;;;;;;;3.30;3.05;;;20.50;99.90;;;;;;5043421;28;20272;-72
2022/09/06 05:52:59;;;;;;;4.25;3.25;;;20.50;99.90;;;;;;5045080;28;20207;-72
2022/09/06 05:55:26;;;;;;;3.85;3.55;;;20.50;99.90;;;;;;5042660;28;20259;-72
2022/09/06 05:57:54;;;;;;;3.50;3.20;;;20.50;99.90;;;;;;5040384;28;20264;-72
2022/09/06 06:00:21;;;;;;;3.65;3.35;;;20.60;99.90;;;;;;5040333;28;20230;-72
2022/09/06 06:02:49;;;;;;;3.60;3.40;;;20.60;99.90;;;;;;5037585;28;20199;-72
2022/09/06 06:05:16;;;;;;;4.38;3.97;;;20.60;99.90;;;;;;5045471;28;20271;-72
2022/09/06 06:07:43;;;;;;;3.97;3.30;;;20.70;99.90;;;;;;5042595;28;20199;-72
2022/09/06 06:10:10;;;;;;;3.67;3.42;;;20.70;99.90;;;;;;5040269;28;20226;-72
2022/09/06 06:12:37;;;;;;;3.70;3.50;;;20.70;99.90;;;;;;5044457;28;20198;-72
2022/09/06 06:15:07;;;;;;;3.42;3.13;;;20.70;99.90;;;;;;5043600;28;20214;-72
2022/09/06 06:17:34;;;;;;;4.15;3.85;;;20.80;99.90;;;;;;5040040;28;20206;-72
2022/09/06 06:20:01;;;;;;;3.83;3.63;;;20.90;99.90;;;;;;5043969;28;20333;-72
2022/09/06 06:22:28;;;;;;;4.05;3.78;;;20.90;99.90;;;;;;5037301;28;20661;-72
2022/09/06 06:24:55;;;;;;;3.90;3.60;;;20.90;99.90;;;;;;5040133;28;20227;-72
2022/09/06 06:27:22;;;;;;;3.78;3.47;;;20.90;99.90;;;;;;5039826;28;20203;-71
2022/09/06 06:29:51;;;;;;;3.65;3.45;;;21.10;99.90;;;;;;5043271;28;20227;-72
2022/09/06 06:32:19;;;;;;;4.15;3.85;;;21.20;99.90;;;;;;5044796;28;20194;-72
2022/09/06 06:34:48;;;;;;;3.60;3.40;;;21.50;99.90;;;;;;5040037;28;20226;-72
2022/09/06 06:37:15;;;;;;;4.35;3.97;;;21.90;99.90;;;;;;5046190;28;20286;-71
2022/09/06 06:39:42;;;;;;;4.03;3.75;;;22.20;99.90;;;;;;5040342;28;20223;-71
2022/09/06 06:42:09;;;;;;;4.25;3.95;;;22.40;99.90;;;;;;5042650;28;20202;-72
2022/09/06 06:44:36;;;;;;;3.83;3.53;;;22.60;99.90;;;;;;5034077;28;20233;-71
2022/09/06 06:47:03;;;;;;;5.53;4.25;;;22.50;99.90;;;;;;5037972;28;20217;-72
2022/09/06 06:49:31;;;;;;;4.53;3.97;;;22.30;99.90;;;;;;5037115;28;20222;-72
2022/09/06 06:51:58;;;;;;;3.90;3.65;;;22.10;99.90;;;;;;5035988;28;20196;-72
2022/09/06 06:54:25;;;;;;;4.28;3.90;;;22.40;99.90;;;;;;5041340;28;20223;-72
2022/09/06 06:56:53;;;;;;;4.45;4.03;;;22.70;99.90;;;;;;5039446;28;20198;-71
2022/09/06 06:59:20;;;;;;;4.57;4.28;;;23.20;99.90;;;;;;5041750;28;20229;-74
2022/09/06 07:01:49;;;;;;;4.30;3.90;;;23.60;99.90;;;;;;5037217;28;20737;-73
2022/09/06 07:04:16;;;;;;;4.88;4.38;;;23.90;99.90;;;;;;5031286;28;20314;-71
2022/09/06 07:06:49;;;;;;;4.57;4.00;;;24.00;99.90;;;;;;5036645;28;20653;-72
2022/09/06 07:09:18;;;;;;;4.70;4.38;;;24.20;99.90;;;;;;5037706;28;20721;-72
2022/09/06 07:11:45;;;;;;;4.75;4.35;;;24.10;99.90;;;;;;5038827;28;20227;-72
2022/09/06 07:14:12;;;;;;;4.68;4.30;;;24.00;99.90;;;;;;5032329;28;20239;-73
2022/09/06 07:16:39;;;;;;;4.43;4.10;;;24.10;99.90;;;;;;5036069;28;20254;-73
2022/09/06 07:19:06;;;;;;;4.80;4.30;;;24.10;99.90;;;;;;5033900;28;20645;-72
2022/09/06 07:21:33;;;;;;;6.50;4.70;;;24.00;99.90;;;;;;5036692;28;20235;-73
2022/09/06 07:24:02;;;;;;;4.72;4.32;;;24.00;99.90;;;;;;5033316;28;20710;-73
2022/09/06 07:26:30;;;;;;;4.68;4.25;;;24.20;99.90;;;;;;5035421;28;20237;-73
2022/09/06 07:28:59;;;;;;;4.25;3.85;;;24.40;99.90;;;;;;5039331;28;20192;-73
2022/09/06 07:31:28;;;;;;;4.00;3.65;;;24.50;99.90;;;;;;5038077;28;20245;-73
2022/09/06 07:33:55;;;;;;;4.28;3.97;;;24.70;99.90;;;;;;5033277;28;20215;-73
2022/09/06 07:36:22;;;;;;;5.28;3.95;;;25.00;99.90;;;;;;5034419;28;20215;-73
2022/09/06 07:38:50;;;;;;;5.30;4.10;;;25.20;99.90;;;;;;5042403;28;20211;-73
2022/09/06 07:41:19;;;;;;;4.45;4.05;;;25.30;99.90;;;;;;5039532;28;20222;-72
2022/09/06 07:43:47;;;;;;;4.22;3.92;;;25.30;99.90;;;;;;5037395;28;20202;-71
2022/09/06 07:46:15;;;;;;;3.80;3.50;;;25.20;99.90;;;;;;5034286;28;20795;-73
2022/09/06 07:48:45;;;;;;;5.93;3.85;;;25.30;99.90;;;;;;5040683;28;20654;-73
2022/09/06 07:51:15;;;;;;;4.35;3.67;;;25.40;99.90;;;;;;5037941;28;20266;-73
2022/09/06 07:53:44;;;;;;;3.80;3.42;;;25.60;99.90;;;;;;5039562;28;20479;-74
2022/09/06 07:56:12;;;;;;;5.50;4.07;;;25.90;99.90;;;;;;5032637;28;20219;-73
2022/09/06 07:58:41;;;;;;;3.50;3.20;;;26.00;99.90;;;;;;5041403;28;20250;-72
2022/09/06 08:01:19;;;;;;;4.18;3.90;;;25.90;99.90;;;;;;5037248;28;20242;-72
2022/09/06 08:03:47;;;;;;;3.88;3.40;;;26.20;99.90;;;;;;5039596;28;20257;-72
2022/09/06 08:06:14;;;;;;;3.45;3.20;;;26.50;99.90;;;;;;5041519;28;20222;-73
2022/09/06 08:08:42;;;;;;;4.70;3.60;;;26.30;99.90;;;;;;5041252;28;20829;-72
2022/09/06 08:11:09;;;;;;;5.45;3.70;;;26.20;99.90;;;;;;5038725;28;20225;-73
2022/09/06 08:13:37;;;;;;;3.72;3.50;;;26.40;99.90;;;;;;5040489;28;20203;-72
2022/09/06 08:16:08;;;;;;;3.90;3.60;;;26.50;99.90;;;;;;5038468;28;20955;-73
2022/09/06 08:18:36;;;;;;;3.35;3.15;;;26.80;99.90;;;;;;5036608;28;20269;-73
2022/09/06 08:21:07;;;;;;;3.47;3.17;;;27.20;99.90;;;;;;5039525;28;20220;-72
2022/09/06 08:23:35;;;;;;;3.85;3.55;;;27.40;99.90;;;;;;5035839;28;20204;-73
2022/09/06 08:26:02;;;;;;;3.97;3.67;;;27.80;99.90;;;;;;5038219;28;20250;-75
2022/09/06 08:28:29;;;;;;;5.10;3.75;;;27.90;99.90;;;;;;5035668;28;20191;-76
2022/09/06 08:31:04;;;;;;;4.03;3.70;;;27.70;99.90;;;;;;5037186;28;20280;-75
2022/09/06 08:33:33;;;;;;;3.83;3.55;;;27.70;99.90;;;;;;5038455;28;20572;-74
2022/09/06 08:36:00;;;;;;;3.80;3.47;;;27.40;99.90;;;;;;5038273;28;20227;-74
2022/09/06 08:38:28;;;;;;;4.40;3.67;;;27.50;99.90;;;;;;5033067;28;21063;-72
2022/09/06 08:41:06;;;;;;;4.55;3.80;;;27.40;99.90;;;;;;5037578;28;20836;-73
2022/09/06 08:43:33;;;;;;;4.47;3.72;;;27.40;99.90;;;;;;5035069;28;20230;-74
2022/09/06 08:46:01;;;;;;;4.40;3.80;;;27.40;99.90;;;;;;5036244;28;20232;-76
2022/09/06 08:48:32;;;;;;;4.50;4.10;;;27.20;99.90;;;;;;5037822;28;20669;-75
2022/09/06 08:51:17;;;;;;;4.80;3.88;;;27.30;99.90;;;;;;5037008;28;20226;-73
2022/09/06 08:53:46;;;;;;;3.92;3.42;;;27.40;99.90;;;;;;5038480;28;20201;-72
2022/09/06 08:56:19;;;;;;;3.83;3.53;;;27.40;99.90;;;;;;5037546;28;20246;-73
2022/09/06 08:59:02;;;;;;;4.28;3.53;;;27.40;99.90;;;;;;5038783;28;20203;-71
2022/09/06 09:01:36;;;;;;;3.92;3.58;;;27.40;99.90;;;;;;5033840;28;20223;-74
2022/09/06 09:04:06;;;;;;;3.80;3.50;;;27.50;99.90;;;;;;5034069;28;20239;-73
2022/09/06 09:06:35;;;;;;;4.00;3.70;;;27.60;99.90;;;;;;5037557;28;20234;-75
2022/09/06 09:09:05;;;;;;;3.95;3.65;;;27.70;99.90;;;;;;5036441;28;20192;-75
2022/09/06 09:11:34;;;;;;;4.70;3.97;;;28.00;99.90;;;;;;5040921;28;20254;-75
2022/09/06 09:14:05;;;;;;;3.92;3.58;;;28.20;99.90;;;;;;5036750;28;20300;-74
2022/09/06 09:16:33;;;;;;;5.35;3.90;;;28.30;99.90;;;;;;5038250;28;20660;-74
2022/09/06 09:19:02;;;;;;;4.03;3.47;;;28.20;99.90;;;;;;5035412;28;20211;-74
2022/09/06 09:21:33;;;;;;;3.90;3.60;;;28.00;99.90;;;;;;5037407;28;20214;-74
2022/09/06 09:24:05;;;;;;;3.70;3.40;;;28.10;99.90;;;;;;5039906;28;20230;-73
2022/09/06 09:26:38;;;;;;;4.15;3.85;;;28.00;99.90;;;;;;5036976;28;20801;-74
2022/09/06 09:29:08;;;;;;;4.18;3.85;;;28.20;99.90;;;;;;5037948;28;20225;-72
2022/09/06 09:31:38;;;;;;;3.97;3.67;;;28.10;99.90;;;;;;5032475;28;20223;-72
2022/09/06 09:34:05;;;;;;;4.10;3.53;;;28.00;99.90;;;;;;5035732;28;20301;-74
2022/09/06 09:36:33;;;;;;;4.30;4.00;;;28.20;99.90;;;;;;5038328;28;20227;-74
2022/09/06 09:39:00;;;;;;;4.18;3.78;;;28.50;99.90;;;;;;5040023;28;20192;-74
2022/09/06 09:41:34;;;;;;;4.30;3.90;;;28.40;99.90;;;;;;5036096;28;20223;-72
2022/09/06 09:44:03;;;;;;;4.43;3.83;;;28.30;99.90;;;;;;5033532;28;20210;-73
2022/09/06 09:46:32;;;;;;;4.55;4.15;;;28.40;99.90;;;;;;5034802;28;20210;-74
2022/09/06 09:49:04;;;;;;;3.85;3.55;;;28.50;99.90;;;;;;5034950;28;20192;-73
2022/09/06 09:51:33;;;;;;;4.00;3.70;;;28.50;99.90;;;;;;5035524;28;20637;-72
2022/09/06 09:54:02;;;;;;;3.83;3.40;;;28.70;99.90;;;;;;5033912;28;20226;-71
2022/09/06 09:56:39;;;;;;;4.07;3.75;;;28.90;99.90;;;;;;5032934;28;20230;-72
2022/09/06 09:59:20;;;;;;;4.68;4.00;;;29.00;99.90;;;;;;5031824;28;20305;-74
2022/09/06 10:01:48;;;;;;;3.65;3.35;;;29.10;99.90;;;;;;5033461;28;20222;-75
2022/09/06 10:04:20;;;;;;;4.85;3.72;;;29.00;99.90;;;;;;5039997;28;20234;-73
2022/09/06 10:06:47;;;;;;;3.92;3.63;;;29.10;99.90;;;;;;5033604;28;20207;-74
2022/09/06 10:09:18;;;;;;;4.35;4.05;;;29.30;99.90;;;;;;5032770;28;20249;-73
2022/09/06 10:11:54;;;;;;;3.83;3.53;;;29.30;99.90;;;;;;5035208;28;20199;-74
2022/09/06 10:14:30;;;;;;;3.70;3.40;;;29.30;99.90;;;;;;5036380;28;20246;-74
2022/09/06 10:16:58;;;;;;;3.65;3.35;;;29.30;99.90;;;;;;5031331;28;20210;-74
2022/09/06 10:19:38;;;;;;;3.88;3.58;;;29.30;99.90;;;;;;5037189;28;20211;-71
2022/09/06 10:22:27;;;;;;;5.35;4.03;;;29.30;99.90;;;;;;5032636;28;20200;-70
2022/09/06 10:25:24;;;;;;;3.95;3.50;;;29.10;99.90;;;;;;5034673;28;20218;-70
2022/09/06 10:28:08;;;;;;;4.03;3.70;;;29.10;99.90;;;;;;5035904;28;20533;-72
2022/09/06 10:30:41;;;;;;;3.70;3.40;;;29.40;99.90;;;;;;5030269;28;20288;-71
2022/09/06 10:33:16;;;;;;;4.18;3.88;;;29.40;99.90;;;;;;5034574;28;20206;-72
2022/09/06 10:35:43;;;;;;;4.28;3.75;;;29.40;99.90;;;;;;5037900;28;20272;-72
2022/09/06 10:38:31;;;;;;;3.95;3.63;;;29.40;99.90;;;;;;5034329;28;20677;-74
2022/09/06 10:41:22;;;;;;;3.70;3.47;;;29.50;99.90;;;;;;5035145;28;20230;-73
2022/09/06 10:44:00;;;;;;;3.58;3.28;;;29.50;99.90;;;;;;5034862;28;20195;-76
2022/09/06 10:46:27;;;;;;;3.60;3.30;;;29.50;99.90;;;;;;5033553;28;20624;-73
2022/09/06 10:48:55;;;;;;;3.75;3.45;;;29.60;99.90;;;;;;5036413;28;20285;-72
2022/09/06 10:51:31;;;;;;;4.00;3.60;;;29.70;99.90;;;;;;5034213;28;20831;-73
2022/09/06 10:54:06;;;;;;;3.50;2.88;;;29.60;99.90;;;;;;5032445;28;20199;-73
2022/09/06 10:56:41;;;;;;;3.67;3.40;;;29.60;99.90;;;;;;5031096;28;20840;-73
2022/09/06 10:59:17;;;;;;;3.65;3.35;;;29.80;99.90;;;;;;5030416;28;20213;-74
2022/09/06 11:02:07;;;;;;;3.38;3.17;;;30.10;99.90;;;;;;5031084;28;20287;-72
2022/09/06 11:04:37;;;;;;;4.22;3.50;;;30.30;99.90;;;;;;5036078;28;20238;-72
2022/09/06 11:07:11;;;;;;;3.35;3.05;;;30.10;99.90;;;;;;5034887;28;20287;-74
2022/09/06 11:09:44;;;;;;;3.70;3.40;;;30.20;99.90;;;;;;5033970;28;20313;-75
2022/09/06 11:12:14;;;;;;;3.90;3.40;;;30.20;99.90;;;;;;5038512;28;20187;-76
2022/09/06 11:14:43;;;;;;;3.40;3.10;;;30.10;99.90;;;;;;5038516;28;20721;-78
2022/09/06 11:17:14;;;;;;;3.10;2.90;;;30.00;99.90;;;;;;5035730;28;20207;-77
2022/09/06 11:19:46;;;;;;;2.80;2.60;;;30.10;99.90;;;;;;5037387;28;20219;-75
2022/09/06 11:22:35;;;;;;;3.75;3.40;;;30.40;99.90;;;;;;5035583;28;20213;-76
2022/09/06 11:25:36;;;;;;;3.55;3.25;;;30.40;99.90;;;;;;5033906;28;20237;-77
2022/09/06 11:28:07;;;;;;;3.72;3.30;;;30.20;99.90;;;;;;5034302;28;20658;-79
2022/09/06 11:30:36;;;;;;;3.80;3.50;;;30.10;99.90;;;;;;5033228;28;20701;-78
2022/09/06 11:33:11;;;;;;;3.72;3.42;;;30.00;99.90;;;;;;5042862;28;20263;-78
2022/09/06 11:35:41;;;;;;;3.85;3.55;;;29.90;99.90;;;;;;5040108;28;20379;-78
2022/09/06 11:38:23;;;;;;;3.88;3.58;;;29.70;99.90;;;;;;5039625;28;20218;-76
2022/09/06 11:40:59;;;;;;;3.60;3.10;;;29.60;99.90;;;;;;5037846;28;20229;-77
2022/09/06 11:43:45;;;;;;;3.25;3.03;;;29.70;99.90;;;;;;5042687;28;20305;-78
2022/09/06 11:46:47;;;;;;;3.10;2.90;;;30.20;99.90;;;;;;5040114;28;20222;-78
2022/09/06 11:49:40;;;;;;;3.30;3.10;;;30.40;99.90;;;;;;5037205;28;20618;-76
2022/09/06 11:52:57;;;;;;;2.70;2.40;;;30.30;99.90;;;;;;5039952;28;20199;-77
2022/09/06 11:55:35;;;;;;;3.53;3.00;;;30.10;99.90;;;;;;5034335;28;20231;-77
2022/09/06 11:58:05;;;;;;;2.88;2.67;;;30.10;99.90;;;;;;5033994;28;20728;-73
2022/09/06 12:00:32;;;;;;;3.47;3.17;;;30.10;99.90;;;;;;5035388;28;20276;-74
2022/09/06 12:03:00;;;;;;;3.20;3.00;;;30.10;99.90;;;;;;5035488;28;20207;-75
2022/09/06 12:05:30;;;;;;;4.60;3.40;;;30.00;99.90;;;;;;5028726;28;20230;-72
2022/09/06 12:08:26;;;;;;;4.10;2.63;;;29.80;99.90;;;;;;5039498;28;20206;-74
2022/09/06 12:11:26;;;;;;;5.18;3.00;;;29.90;99.90;;;;;;5038601;28;20227;-71
2022/09/06 12:13:56;;;;;;;2.95;2.65;;;30.00;99.90;;;;;;5031231;28;20199;-74
2022/09/06 12:16:24;;;;;;;3.42;3.00;;;30.00;99.90;;;;;;5035875;28;20406;-74
2022/09/06 12:19:09;;;;;;;3.20;2.90;;;30.00;99.90;;;;;;5037572;28;20256;-72
2022/09/06 12:21:44;;;;;;;3.33;3.10;;;30.20;99.90;;;;;;5038776;28;20284;-73
2022/09/06 12:24:51;;;;;;;5.53;3.28;;;30.20;99.90;;;;;;5037957;28;20213;-74
2022/09/06 12:27:21;;;;;;;4.05;2.80;;;30.30;99.90;;;;;;5021114;28;20198;-71
2022/09/06 12:29:56;;;;;;;2.67;2.47;;;30.20;99.90;;;;;;5034399;28;20226;-71
2022/09/06 12:32:28;;;;;;;2.65;2.40;;;30.50;99.90;;;;;;5034349;28;20203;-72
2022/09/06 12:34:57;;;;;;;2.50;2.22;;;30.60;99.90;;;;;;5034414;28;20223;-74
2022/09/06 12:37:36;;;;;;;3.15;2.45;;;30.80;99.90;;;;;;5037402;28;20614;-72
2022/09/06 12:40:05;;;;;;;2.28;2.15;;;30.90;99.90;;;;;;5033239;28;20250;-72
2022/09/06 12:42:34;;;;;;;2.80;2.60;;;31.00;99.90;;;;;;5032072;28;20215;-72
2022/09/06 12:45:04;;;;;;;2.45;2.35;;;30.90;99.90;;;;;;5033955;28;20720;-72
2022/09/06 12:47:34;;;;;;;2.90;2.60;;;30.90;99.90;;;;;;5013263;28;20783;-72
2022/09/06 12:50:13;;;;;;;2.50;2.30;;;31.00;99.90;;;;;;5029799;28;20234;-72
2022/09/06 12:52:47;;;;;;;2.80;2.25;;;30.90;99.90;;;;;;5029675;28;20198;-74
2022/09/06 12:55:19;;;;;;;4.80;2.65;;;31.00;99.90;;;;;;5029100;28;20223;-73
2022/09/06 12:57:51;;;;;;;3.17;2.72;;;30.90;99.90;;;;;;5026269;28;20716;-72
2022/09/06 13:00:19;;;;;;;3.42;3.08;;;30.90;99.90;;;;;;5030488;28;20222;-73
2022/09/06 13:02:56;;;;;;;5.40;2.75;;;30.90;99.90;;;;;;5027374;28;20214;-74
2022/09/06 13:05:24;;;;;;;2.63;2.42;;;30.90;99.90;;;;;;5025524;28;20233;-73
2022/09/06 13:07:56;;;;;;;2.83;2.50;;;30.90;99.90;;;;;;5025187;28;20194;-73